Terminal Aerodrome Forecast
Issued by NWS Boston, MA

Home | Current Version | Previous Version | Text Only | Print | Product List | Glossary On
Versions: 1 2 3 4 5 6 7 8 9 10 11 12 13 14 15 16 17 18 19 20 21 22 23 24 25 26 27 28 29 30 31 32 33 34 35 36 37
000
FTUS41 KBOX 172322
TAFPVD
TAF
KPVD 172322Z 1800/1824 21005KT P6SM SCT060
     FM180300 31004KT P6SM SKC
     FM181500 34008KT P6SM FEW250
     FM181800 32007KT P6SM SCT050
     FM182300 33006KT P6SM BKN050=

USA.gov is the U.S. government's official web portal to all federal, state and local government web resources and services.